Time;durP1;ratioP1;P1;durP2;ratioP2;P2;SDS_P1;SDS_P2;PMS_P1;PMS_P2;Temp;Humidity;BMP_temperature;BMP_pressure;BME280_temperature;BME280_humidity;BME280_pressure;Samples;Min_cycle;Max_cycle;Signal;HPM_P1;HPM_P2
2023/06/27 00:00:21;;;;;;;;;;;;;;;18.07;54.47;96821.47;5105091;28;19962;-77
2023/06/27 00:02:47;;;;;;;;;;;;;;;18.04;54.71;96828.09;5105302;28;19959;-74
2023/06/27 00:05:13;;;;;;;;;;;;;;;18.02;54.91;96827.56;5105585;28;20117;-72
2023/06/27 00:07:42;;;;;;;;;;;;;;;17.98;54.84;96829.91;5105573;28;19933;-72
2023/06/27 00:10:09;;;;;;;;;;;;;;;17.97;55.27;96830.16;5105523;28;19940;-72
2023/06/27 00:12:35;;;;;;;;;;;;;;;17.94;55.20;96830.69;5104793;28;20135;-71
2023/06/27 00:15:05;;;;;;;;;;;;;;;17.92;55.06;96835.44;5103710;28;19943;-72
2023/06/27 00:17:33;;;;;;;;;;;;;;;17.91;55.01;96849.75;5105576;28;20037;-72
2023/06/27 00:19:59;;;;;;;;;;;;;;;17.89;55.48;96842.06;5104726;28;19945;-72
2023/06/27 00:22:26;;;;;;;;;;;;;;;17.87;55.85;96848.66;5104764;28;20235;-72
2023/06/27 00:24:52;;;;;;;;;;;;;;;17.83;56.20;96843.88;5103493;28;19937;-73
2023/06/27 00:27:18;;;;;;;;;;;;;;;17.80;56.03;96839.03;5103618;28;19938;-68
2023/06/27 00:29:44;;;;;;;;;;;;;;;17.78;55.85;96843.00;5105401;28;19995;-69
2023/06/27 00:32:10;;;;;;;;;;;;;;;17.76;56.01;96835.28;5103039;28;19951;-69
2023/06/27 00:34:35;;;;;;;;;;;;;;;17.75;55.55;96835.56;5104584;28;20216;-68
2023/06/27 00:37:01;;;;;;;;;;;;;;;17.74;56.35;96833.94;5104543;28;19975;-68
2023/06/27 00:39:27;;;;;;;;;;;;;;;17.71;56.27;96831.81;5104381;28;19960;-68
2023/06/27 00:41:54;;;;;;;;;;;;;;;17.68;56.08;96834.97;5105534;28;20013;-68
2023/06/27 00:44:20;;;;;;;;;;;;;;;17.65;56.10;96838.94;5104425;28;19966;-68
2023/06/27 00:46:46;;;;;;;;;;;;;;;17.61;56.84;96833.31;5104339;28;19939;-69
2023/06/27 00:49:12;;;;;;;;;;;;;;;17.59;56.32;96843.38;5104258;28;19934;-69
2023/06/27 00:51:40;;;;;;;;;;;;;;;17.56;56.64;96840.47;5104863;28;19947;-69
2023/06/27 00:54:07;;;;;;;;;;;;;;;17.53;56.78;96844.38;5104289;28;19936;-70
2023/06/27 00:56:33;;;;;;;;;;;;;;;17.50;56.65;96844.91;5105032;28;19941;-69
2023/06/27 00:58:59;;;;;;;;;;;;;;;17.49;57.42;96845.16;5104121;28;19941;-69
2023/06/27 01:01:25;;;;;;;;;;;;;;;17.45;57.16;96850.97;5104062;28;19959;-69
2023/06/27 01:03:52;;;;;;;;;;;;;;;17.41;56.90;96849.09;5104142;28;19957;-69
2023/06/27 01:06:22;;;;;;;;;;;;;;;17.38;57.66;96847.72;5104159;28;19936;-69
2023/06/27 01:08:52;;;;;;;;;;;;;;;17.35;58.50;96856.19;5104733;28;19937;-69
2023/06/27 01:11:38;;;;;;;;;;;;;;;17.31;58.34;96863.03;5104128;28;19952;-70
2023/06/27 01:14:04;;;;;;;;;;;;;;;17.29;58.44;96856.38;5103864;28;19951;-69
2023/06/27 01:16:32;;;;;;;;;;;;;;;17.28;58.73;96852.13;5104086;28;19938;-69
2023/06/27 01:19:00;;;;;;;;;;;;;;;17.24;58.17;96857.13;5104102;28;19935;-69
2023/06/27 01:21:28;;;;;;;;;;;;;;;17.23;59.31;96858.19;5104906;28;19935;-74
2023/06/27 01:23:55;;;;;;;;;;;;;;;17.21;58.67;96847.03;5104804;28;20120;-69
2023/06/27 01:26:21;;;;;;;;;;;;;;;17.19;58.92;96857.88;5104034;28;19956;-69
2023/06/27 01:28:47;;;;;;;;;;;;;;;17.19;58.56;96852.56;5103964;28;19938;-69
2023/06/27 01:31:23;;;;;;;;;;;;;;;17.20;58.72;96856.03;5104685;28;19950;-69
2023/06/27 01:33:59;;;;;;;;;;;;;;;17.19;59.10;96849.91;5104387;28;19934;-69
2023/06/27 01:36:39;;;;;;;;;;;;;;;17.19;58.98;96849.13;5103841;28;19940;-69
2023/06/27 01:39:07;;;;;;;;;;;;;;;17.19;59.20;96847.25;5104206;28;19939;-69
2023/06/27 01:41:36;;;;;;;;;;;;;;;17.20;60.00;96854.19;5103822;28;19933;-75
2023/06/27 01:44:03;;;;;;;;;;;;;;;17.21;60.05;96854.97;5106906;28;19952;-70
2023/06/27 01:46:30;;;;;;;;;;;;;;;17.22;59.69;96852.09;5108056;28;19936;-71
2023/06/27 01:48:56;;;;;;;;;;;;;;;17.23;59.18;96844.94;5107505;28;20129;-71
2023/06/27 01:51:22;;;;;;;;;;;;;;;17.24;59.77;96843.88;5108259;28;19938;-70
2023/06/27 01:53:48;;;;;;;;;;;;;;;17.26;59.57;96841.78;5107850;28;19945;-70
2023/06/27 01:56:14;;;;;;;;;;;;;;;17.26;59.53;96844.44;5107408;28;19943;-71
2023/06/27 01:58:40;;;;;;;;;;;;;;;17.28;59.39;96842.31;5107501;28;19933;-74
2023/06/27 02:01:08;;;;;;;;;;;;;;;17.28;59.90;96844.16;5107137;28;19962;-74
2023/06/27 02:03:34;;;;;;;;;;;;;;;17.27;60.64;96837.28;5106321;28;20271;-74
2023/06/27 02:06:00;;;;;;;;;;;;;;;17.27;59.75;96839.94;5107451;28;19930;-72
2023/06/27 02:08:26;;;;;;;;;;;;;;;17.27;59.44;96832.78;5107495;28;19934;-73
2023/06/27 02:10:51;;;;;;;;;;;;;;;17.25;59.22;96838.31;5107265;28;19932;-72
2023/06/27 02:13:17;;;;;;;;;;;;;;;17.25;58.95;96834.88;5107257;28;19982;-72
2023/06/27 02:15:43;;;;;;;;;;;;;;;17.23;59.06;96829.81;5107501;28;20220;-72
2023/06/27 02:18:09;;;;;;;;;;;;;;;17.20;59.81;96826.88;5107078;28;20128;-70
2023/06/27 02:20:35;;;;;;;;;;;;;;;17.20;59.21;96826.88;5107557;28;19928;-74
2023/06/27 02:23:01;;;;;;;;;;;;;;;17.20;59.36;96822.38;5106849;28;20034;-74
2023/06/27 02:25:27;;;;;;;;;;;;;;;17.20;59.14;96827.69;5107778;28;19944;-74
2023/06/27 02:27:52;;;;;;;;;;;;;;;17.20;59.45;96832.97;5107658;28;19946;-74
2023/06/27 02:30:19;;;;;;;;;;;;;;;17.18;59.17;96823.69;5106858;28;19942;-74
2023/06/27 02:32:44;;;;;;;;;;;;;;;17.16;58.08;96815.97;5106729;28;19954;-75
2023/06/27 02:35:15;;;;;;;;;;;;;;;17.13;58.13;96821.75;5106703;28;19973;-75
2023/06/27 02:37:41;;;;;;;;;;;;;;;17.11;59.19;96823.06;5107281;28;20110;-70
2023/06/27 02:40:08;;;;;;;;;;;;;;;17.09;59.30;96817.22;5106690;28;19933;-70
2023/06/27 02:42:34;;;;;;;;;;;;;;;17.03;58.66;96813.75;5106617;28;19939;-70
2023/06/27 02:45:00;;;;;;;;;;;;;;;17.01;59.16;96818.47;5107016;28;19948;-70
2023/06/27 02:47:25;;;;;;;;;;;;;;;17.00;60.65;96817.66;5107077;28;19941;-70
2023/06/27 02:49:51;;;;;;;;;;;;;;;17.01;60.07;96827.22;5106489;28;19938;-69
2023/06/27 02:52:17;;;;;;;;;;;;;;;17.02;59.87;96833.31;5106546;28;19936;-69
2023/06/27 02:54:43;;;;;;;;;;;;;;;17.02;60.46;96820.88;5106632;28;19990;-75
2023/06/27 02:57:10;;;;;;;;;;;;;;;17.03;59.70;96819.03;5106443;28;19953;-68
2023/06/27 02:59:36;;;;;;;;;;;;;;;17.03;59.59;96827.78;5106570;28;19934;-69
2023/06/27 03:02:02;;;;;;;;;;;;;;;17.04;59.75;96818.75;5106817;28;20013;-68
2023/06/27 03:04:28;;;;;;;;;;;;;;;17.03;59.65;96817.19;5105103;28;19964;-68
2023/06/27 03:06:53;;;;;;;;;;;;;;;17.03;59.49;96821.69;5106986;28;19962;-68
2023/06/27 03:09:19;;;;;;;;;;;;;;;17.02;59.02;96815.56;5106143;28;19940;-68
2023/06/27 03:11:45;;;;;;;;;;;;;;;17.02;59.04;96822.72;5106135;28;19938;-69
2023/06/27 03:14:12;;;;;;;;;;;;;;;17.02;58.57;96823.50;5106133;28;19943;-74
2023/06/27 03:16:38;;;;;;;;;;;;;;;17.03;58.87;96826.97;5106024;28;19940;-74
2023/06/27 03:19:04;;;;;;;;;;;;;;;17.04;58.98;96826.72;5106035;28;20008;-73
2023/06/27 03:21:30;;;;;;;;;;;;;;;17.05;59.62;96832.84;5106788;28;19938;-74
2023/06/27 03:23:55;;;;;;;;;;;;;;;17.04;59.45;96828.56;5106348;28;19960;-74
2023/06/27 03:26:27;;;;;;;;;;;;;;;17.04;59.69;96833.88;5105850;28;20010;-74
2023/06/27 03:28:54;;;;;;;;;;;;;;;17.05;59.57;96835.50;5106299;28;19938;-74
2023/06/27 03:31:20;;;;;;;;;;;;;;;17.04;59.45;96825.91;5105604;28;19945;-68
2023/06/27 03:33:46;;;;;;;;;;;;;;;17.03;59.77;96821.69;5105555;28;20159;-70
2023/06/27 03:36:12;;;;;;;;;;;;;;;17.02;59.97;96828.03;5105550;28;19940;-70
2023/06/27 03:38:38;;;;;;;;;;;;;;;17.00;60.44;96830.13;5105768;28;20043;-70
2023/06/27 03:41:04;;;;;;;;;;;;;;;16.99;60.33;96825.88;5105411;28;19939;-69
2023/06/27 03:43:29;;;;;;;;;;;;;;;17.00;60.92;96838.06;5105885;28;19953;-70
2023/06/27 03:45:55;;;;;;;;;;;;;;;17.00;61.15;96840.72;5105381;28;19936;-70
2023/06/27 03:48:21;;;;;;;;;;;;;;;17.00;61.21;96843.38;5105447;28;19937;-69
2023/06/27 03:50:47;;;;;;;;;;;;;;;16.99;61.44;96849.72;5105402;28;19936;-69
2023/06/27 03:53:13;;;;;;;;;;;;;;;16.99;61.51;96845.22;5105345;28;19936;-74
2023/06/27 03:55:40;;;;;;;;;;;;;;;16.98;61.45;96846.25;5104059;28;19935;-74
2023/06/27 03:58:06;;;;;;;;;;;;;;;16.98;61.76;96846.25;5105714;28;19935;-74
2023/06/27 04:00:32;;;;;;;;;;;;;;;16.97;61.70;96843.88;5105392;28;19966;-75
2023/06/27 04:02:58;;;;;;;;;;;;;;;16.95;61.80;96838.03;5104993;28;20002;-75
2023/06/27 04:05:24;;;;;;;;;;;;;;;16.95;61.92;96838.03;5104193;28;19960;-75
2023/06/27 04:07:50;;;;;;;;;;;;;;;16.92;61.73;96831.34;5105012;28;19936;-69
2023/06/27 04:10:18;;;;;;;;;;;;;;;16.92;61.92;96835.84;5104997;28;19936;-68
2023/06/27 04:12:44;;;;;;;;;;;;;;;16.92;62.66;96835.84;5105696;28;20218;-68
2023/06/27 04:15:10;;;;;;;;;;;;;;;16.93;62.67;96845.41;5104794;28;19953;-68
2023/06/27 04:17:36;;;;;;;;;;;;;;;16.92;63.26;96835.84;5104737;28;19942;-68
2023/06/27 04:20:02;;;;;;;;;;;;;;;16.90;62.40;96840.59;5104592;28;19966;-68
2023/06/27 04:22:28;;;;;;;;;;;;;;;16.90;63.17;96846.69;5104470;28;19956;-69
2023/06/27 04:24:53;;;;;;;;;;;;;;;16.92;63.15;96847.25;5104323;28;19956;-68
2023/06/27 04:27:19;;;;;;;;;;;;;;;16.94;62.98;96847.00;5105064;28;19937;-73
2023/06/27 04:29:45;;;;;;;;;;;;;;;16.94;63.09;96845.16;5103250;28;19946;-68
2023/06/27 04:32:11;;;;;;;;;;;;;;;16.95;62.97;96848.63;5104544;28;19952;-69
2023/06/27 04:34:37;;;;;;;;;;;;;;;16.94;63.43;96852.31;5103398;28;19948;-68
2023/06/27 04:37:03;;;;;;;;;;;;;;;16.94;63.02;96847.00;5104565;28;19934;-68
2023/06/27 04:39:29;;;;;;;;;;;;;;;16.94;63.57;96855.75;5104545;28;19939;-69
2023/06/27 04:41:56;;;;;;;;;;;;;;;16.94;63.37;96854.97;5104476;28;20224;-68
2023/06/27 04:44:22;;;;;;;;;;;;;;;16.95;62.80;96851.28;5104396;28;20011;-69
2023/06/27 04:46:48;;;;;;;;;;;;;;;16.96;63.05;96858.94;5104432;28;19940;-72
2023/06/27 04:49:14;;;;;;;;;;;;;;;16.96;63.59;96856.31;5104165;28;19984;-71
2023/06/27 04:51:40;;;;;;;;;;;;;;;16.98;63.81;96856.84;5104424;28;20227;-72
2023/06/27 04:54:06;;;;;;;;;;;;;;;16.99;63.71;96855.81;5104874;28;19946;-73
2023/06/27 04:56:33;;;;;;;;;;;;;;;16.99;64.05;96866.41;5103210;28;19948;-73
2023/06/27 04:58:59;;;;;;;;;;;;;;;17.00;64.49;96867.22;5104344;28;19946;-71
2023/06/27 05:01:25;;;;;;;;;;;;;;;16.98;64.57;96864.81;5104294;28;19969;-71
2023/06/27 05:03:52;;;;;;;;;;;;;;;16.98;64.93;96870.09;5104236;28;20153;-69
2023/06/27 05:06:17;;;;;;;;;;;;;;;16.99;64.82;96874.38;5104315;28;19931;-69
2023/06/27 05:08:44;;;;;;;;;;;;;;;16.99;64.30;96871.72;5104704;28;19984;-68
2023/06/27 05:11:10;;;;;;;;;;;;;;;16.99;64.07;96873.56;5104240;28;19948;-68
2023/06/27 05:13:36;;;;;;;;;;;;;;;16.99;63.95;96879.66;5104129;28;19932;-68
2023/06/27 05:16:02;;;;;;;;;;;;;;;17.00;63.09;96878.59;5104997;28;19941;-67
2023/06/27 05:18:27;;;;;;;;;;;;;;;17.00;62.25;96869.84;5109006;28;19947;-67
2023/06/27 05:20:53;;;;;;;;;;;;;;;16.96;63.00;96877.50;5108237;28;19988;-69
2023/06/27 05:23:21;;;;;;;;;;;;;;;16.99;62.87;96873.56;5108747;28;19937;-68
2023/06/27 05:25:47;;;;;;;;;;;;;;;16.98;62.08;96870.09;5108181;28;19935;-75
2023/06/27 05:28:13;;;;;;;;;;;;;;;16.98;61.52;96871.97;5108134;28;19936;-73
2023/06/27 05:30:39;;;;;;;;;;;;;;;16.95;62.18;96870.59;5108133;28;19943;-75
2023/06/27 05:33:05;;;;;;;;;;;;;;;16.96;62.60;96863.44;5108527;28;19957;-73
2023/06/27 05:35:31;;;;;;;;;;;;;;;16.93;62.38;96859.47;5108804;28;19944;-74
2023/06/27 05:37:57;;;;;;;;;;;;;;;16.95;62.50;96862.66;5108517;28;19956;-73
2023/06/27 05:40:23;;;;;;;;;;;;;;;16.99;63.44;96871.72;5107923;28;19932;-68
2023/06/27 05:42:49;;;;;;;;;;;;;;;17.05;63.39;96872.59;5107865;28;20227;-72
2023/06/27 05:45:15;;;;;;;;;;;;;;;17.11;63.78;96874.22;5108310;28;19950;-71
2023/06/27 05:47:42;;;;;;;;;;;;;;;17.17;63.70;96875.88;5108258;28;19935;-71
2023/06/27 05:50:08;;;;;;;;;;;;;;;17.27;63.13;96879.69;5108285;28;19953;-73
2023/06/27 05:52:34;;;;;;;;;;;;;;;17.32;62.21;96872.56;5107711;28;20132;-74
2023/06/27 05:55:00;;;;;;;;;;;;;;;17.36;63.04;96881.63;5107644;28;19939;-73
2023/06/27 05:57:26;;;;;;;;;;;;;;;17.41;62.73;96878.25;5106580;28;19936;-73
2023/06/27 05:59:52;;;;;;;;;;;;;;;17.45;63.07;96880.13;5107409;28;19968;-72
2023/06/27 06:02:18;;;;;;;;;;;;;;;17.47;62.30;96885.19;5107913;28;19944;-69
2023/06/27 06:04:44;;;;;;;;;;;;;;;17.48;62.54;96889.44;5108156;28;19962;-69
2023/06/27 06:07:10;;;;;;;;;;;;;;;17.50;62.78;96889.19;5107754;28;19939;-69
2023/06/27 06:09:35;;;;;;;;;;;;;;;17.53;63.81;96894.78;5107241;28;19937;-69
2023/06/27 06:12:01;;;;;;;;;;;;;;;17.58;63.87;96888.75;5107301;28;19941;-69
2023/06/27 06:14:27;;;;;;;;;;;;;;;17.62;63.54;96887.97;5107460;28;19937;-69
2023/06/27 06:16:53;;;;;;;;;;;;;;;17.68;64.74;96888.84;5107152;28;19980;-77
2023/06/27 06:19:19;;;;;;;;;;;;;;;17.75;62.45;96883.31;5105734;28;19930;-71
2023/06/27 06:21:45;;;;;;;;;;;;;;;17.84;62.39;96885.25;5106981;28;19940;-71
2023/06/27 06:24:11;;;;;;;;;;;;;;;17.92;61.18;96878.69;5106986;28;20036;-71
2023/06/27 06:26:37;;;;;;;;;;;;;;;17.99;61.02;96870.50;5107738;28;20015;-71
2023/06/27 06:29:03;;;;;;;;;;;;;;;18.04;60.24;96868.72;5106222;28;19942;-71
2023/06/27 06:31:29;;;;;;;;;;;;;;;18.17;59.42;96861.34;5106869;28;19964;-71
2023/06/27 06:33:56;;;;;;;;;;;;;;;18.41;60.01;96856.44;5106916;28;19965;-71
2023/06/27 06:36:26;;;;;;;;;;;;;;;18.71;58.97;96855.78;5106838;28;20120;-69
2023/06/27 06:38:51;;;;;;;;;;;;;;;18.98;58.27;96858.31;5106822;28;19932;-72
2023/06/27 06:41:18;;;;;;;;;;;;;;;19.10;56.37;96852.75;5106757;28;19946;-73
2023/06/27 06:43:44;;;;;;;;;;;;;;;19.17;55.43;96850.66;5106579;28;19939;-74
2023/06/27 06:46:10;;;;;;;;;;;;;;;19.19;54.70;96843.22;5107202;28;19938;-74
2023/06/27 06:48:36;;;;;;;;;;;;;;;19.45;55.60;96851.22;5106533;28;20123;-74
2023/06/27 06:51:02;;;;;;;;;;;;;;;19.81;55.66;96853.91;5107373;28;19934;-74
2023/06/27 06:53:28;;;;;;;;;;;;;;;20.13;54.26;96850.16;5106567;28;20248;-79
2023/06/27 06:55:53;;;;;;;;;;;;;;;20.46;51.56;96838.09;5105304;28;19940;-71
2023/06/27 06:58:19;;;;;;;;;;;;;;;20.65;51.87;96833.00;5106479;28;19949;-71
2023/06/27 07:00:45;;;;;;;;;;;;;;;20.65;51.17;96840.97;5104973;28;19973;-71
2023/06/27 07:03:11;;;;;;;;;;;;;;;20.46;50.14;96835.44;5107069;28;19958;-71
2023/06/27 07:05:38;;;;;;;;;;;;;;;20.45;48.13;96829.31;5088892;28;19956;-71
2023/06/27 07:08:04;;;;;;;;;;;;;;;20.50;50.82;96838.34;5105910;28;19942;-71
2023/06/27 07:10:30;;;;;;;;;;;;;;;20.60;48.82;96831.16;5106728;28;19945;-73
2023/06/27 07:12:57;;;;;;;;;;;;;;;20.72;47.76;96828.16;5106054;28;20123;-71
2023/06/27 07:15:23;;;;;;;;;;;;;;;20.90;50.20;96836.63;5105075;28;19940;-70
2023/06/27 07:17:53;;;;;;;;;;;;;;;21.06;49.50;96827.44;5104864;28;19941;-71
2023/06/27 07:20:25;;;;;;;;;;;;;;;21.12;49.91;96831.66;5104850;28;19935;-71
2023/06/27 07:22:51;;;;;;;;;;;;;;;21.14;48.41;96823.41;5088806;28;20208;-70
2023/06/27 07:25:18;;;;;;;;;;;;;;;21.19;45.66;96823.38;5106006;28;19953;-71
2023/06/27 07:27:44;;;;;;;;;;;;;;;21.28;46.58;96830.50;5104682;28;20241;-71
2023/06/27 07:30:10;;;;;;;;;;;;;;;21.42;46.77;96824.59;5105273;28;19942;-71
2023/06/27 07:32:36;;;;;;;;;;;;;;;21.40;44.80;96816.84;5104643;28;20286;-75
2023/06/27 07:35:04;;;;;;;;;;;;;;;21.38;46.27;96828.88;5106604;28;19935;-72
2023/06/27 07:37:30;;;;;;;;;;;;;;;21.40;44.69;96824.84;5104422;28;19947;-72
2023/06/27 07:39:57;;;;;;;;;;;;;;;21.41;44.99;96830.97;5104735;28;19955;-72
2023/06/27 07:42:23;;;;;;;;;;;;;;;21.49;45.63;96831.19;5105643;28;19933;-71
2023/06/27 07:44:49;;;;;;;;;;;;;;;21.58;46.95;96836.72;5105441;28;19963;-72
2023/06/27 07:47:15;;;;;;;;;;;;;;;21.70;45.64;96833.72;5105803;28;19938;-72
2023/06/27 07:49:41;;;;;;;;;;;;;;;21.74;44.81;96828.63;5104335;28;19932;-72
2023/06/27 07:52:10;;;;;;;;;;;;;;;21.62;45.45;96840.44;5104909;28;19936;-72
2023/06/27 07:54:36;;;;;;;;;;;;;;;21.60;45.14;96841.78;5105824;28;19929;-72
2023/06/27 07:57:02;;;;;;;;;;;;;;;21.71;45.26;96840.63;5105318;28;20032;-72
2023/06/27 07:59:28;;;;;;;;;;;;;;;21.68;45.44;96836.66;5105098;28;20214;-72
2023/06/27 08:01:54;;;;;;;;;;;;;;;21.57;46.00;96835.16;5106035;28;19942;-71
2023/06/27 08:04:20;;;;;;;;;;;;;;;21.49;46.42;96841.06;5105078;28;20266;-71
2023/06/27 08:06:46;;;;;;;;;;;;;;;21.44;46.59;96836.56;5105079;28;19963;-78
2023/06/27 08:09:12;;;;;;;;;;;;;;;21.51;46.49;96836.25;5105902;28;20212;-72
2023/06/27 08:11:38;;;;;;;;;;;;;;;21.55;46.39;96845.31;5104040;28;20239;-70
2023/06/27 08:14:04;;;;;;;;;;;;;;;21.59;46.22;96834.88;5104984;28;19943;-69
2023/06/27 08:16:30;;;;;;;;;;;;;;;21.61;45.68;96822.03;5103770;28;19953;-70
2023/06/27 08:18:56;;;;;;;;;;;;;;;21.49;45.12;96828.53;5104803;28;19944;-70
2023/06/27 08:21:21;;;;;;;;;;;;;;;21.53;46.09;96836.78;5105665;28;19964;-69
2023/06/27 08:23:47;;;;;;;;;;;;;;;21.54;44.90;96825.00;5105314;28;19944;-70
2023/06/27 08:26:14;;;;;;;;;;;;;;;21.52;45.14;96816.50;5104696;28;19953;-70
2023/06/27 08:28:40;;;;;;;;;;;;;;;21.59;45.53;96814.31;5105504;28;19939;-74
2023/06/27 08:31:06;;;;;;;;;;;;;;;21.64;45.79;96816.13;5104625;28;19942;-74
2023/06/27 08:33:32;;;;;;;;;;;;;;;21.51;44.03;96801.56;5104585;28;19941;-74
2023/06/27 08:35:58;;;;;;;;;;;;;;;21.58;45.40;96807.38;5105431;28;19941;-74
2023/06/27 08:38:24;;;;;;;;;;;;;;;21.85;44.77;96798.06;5103496;28;19936;-74
2023/06/27 08:40:54;;;;;;;;;;;;;;;22.07;43.41;96786.91;5105297;28;19938;-75
2023/06/27 08:43:20;;;;;;;;;;;;;;;22.25;43.08;96785.41;5105364;28;19939;-72
2023/06/27 08:45:47;;;;;;;;;;;;;;;22.44;43.26;96788.91;5104587;28;19967;-71
2023/06/27 08:48:14;;;;;;;;;;;;;;;22.49;42.77;96782.72;5104067;28;19939;-70
2023/06/27 08:50:41;;;;;;;;;;;;;;;22.42;43.14;96783.03;5103228;28;20185;-70
2023/06/27 08:53:08;;;;;;;;;;;;;;;22.61;43.67;96785.75;5102837;28;19941;-70
2023/06/27 08:55:34;;;;;;;;;;;;;;;22.86;43.39;96781.16;5103940;28;20089;-71
2023/06/27 08:58:02;;;;;;;;;;;;;;;22.90;42.93;96784.84;5103729;28;19945;-70
2023/06/27 09:00:30;;;;;;;;;;;;;;;22.71;43.18;96784.84;5086461;28;20095;-70
2023/06/27 09:02:58;;;;;;;;;;;;;;;22.56;43.81;96793.84;5102786;28;20727;-73
2023/06/27 09:05:23;;;;;;;;;;;;;;;22.43;42.79;96795.34;5104199;28;19960;-70
2023/06/27 09:07:49;;;;;;;;;;;;;;;22.35;43.36;96792.50;5086955;28;19942;-70
2023/06/27 09:10:15;;;;;;;;;;;;;;;22.33;44.41;96795.47;5086309;28;19954;-70
2023/06/27 09:12:43;;;;;;;;;;;;;;;22.32;43.67;96791.19;5102875;28;19949;-71
2023/06/27 09:15:10;;;;;;;;;;;;;;;22.33;43.39;96783.97;5086507;28;19948;-70
2023/06/27 09:17:37;;;;;;;;;;;;;;;22.28;42.68;96780.28;5102954;28;19941;-71
2023/06/27 09:20:05;;;;;;;;;;;;;;;22.21;42.99;96782.47;5086934;28;19939;-71
2023/06/27 09:22:31;;;;;;;;;;;;;;;22.18;42.26;96783.03;5104104;28;19944;-77
2023/06/27 09:25:14;;;;;;;;;;;;;;;22.15;43.93;96777.47;5086065;28;19979;-72
2023/06/27 09:27:40;;;;;;;;;;;;;;;22.12;42.71;96770.03;5102837;28;19942;-73
2023/06/27 09:30:06;;;;;;;;;;;;;;;22.07;43.36;96770.88;5104632;28;19968;-72
2023/06/27 09:32:34;;;;;;;;;;;;;;;22.09;42.29;96774.84;5103970;28;19952;-72
2023/06/27 09:35:00;;;;;;;;;;;;;;;21.97;41.06;96771.00;5104482;28;20199;-72
2023/06/27 09:37:32;;;;;;;;;;;;;;;22.05;43.60;96773.03;5104777;28;19940;-72
2023/06/27 09:40:15;;;;;;;;;;;;;;;22.18;43.70;96772.34;5104223;28;19941;-71
2023/06/27 09:42:50;;;;;;;;;;;;;;;22.36;43.13;96778.06;5086642;28;19936;-72
2023/06/27 09:45:16;;;;;;;;;;;;;;;22.37;41.87;96777.00;5086667;28;19958;-72
2023/06/27 09:47:42;;;;;;;;;;;;;;;22.37;40.93;96777.78;5103302;28;19938;-73
2023/06/27 09:50:08;;;;;;;;;;;;;;;22.45;42.09;96777.16;5085809;28;19941;-72
2023/06/27 09:52:34;;;;;;;;;;;;;;;22.47;41.24;96777.66;5103819;28;19941;-72
2023/06/27 09:55:00;;;;;;;;;;;;;;;22.45;39.65;96766.47;5102604;28;19945;-73
2023/06/27 09:57:29;;;;;;;;;;;;;;;22.45;41.72;96773.69;5103547;28;19936;-72
2023/06/27 09:59:58;;;;;;;;;;;;;;;22.53;42.81;96781.03;5103531;28;19967;-72
2023/06/27 10:02:31;;;;;;;;;;;;;;;22.75;42.09;96777.03;5102625;28;19938;-75
2023/06/27 10:04:57;;;;;;;;;;;;;;;22.89;40.93;96773.38;5106462;28;19957;-76
2023/06/27 10:07:24;;;;;;;;;;;;;;;22.92;40.86;96773.88;5107463;28;20134;-76
2023/06/27 10:09:50;;;;;;;;;;;;;;;22.93;42.42;96786.97;5107357;28;20232;-76
2023/06/27 10:12:17;;;;;;;;;;;;;;;22.92;42.17;96779.22;5107410;28;19963;-75
2023/06/27 10:14:43;;;;;;;;;;;;;;;23.00;41.17;96774.00;5107768;28;19930;-76
2023/06/27 10:17:10;;;;;;;;;;;;;;;23.08;41.51;96772.59;5107248;28;20281;-71
2023/06/27 10:19:37;;;;;;;;;;;;;;;23.07;39.91;96762.97;5106959;28;20122;-75
2023/06/27 10:22:08;;;;;;;;;;;;;;;22.94;39.91;96774.38;5089845;28;19946;-74
2023/06/27 10:24:34;;;;;;;;;;;;;;;23.01;41.15;96780.97;5089780;28;19934;-73
2023/06/27 10:27:01;;;;;;;;;;;;;;;23.16;41.89;96777.31;5107138;28;19947;-74
2023/06/27 10:29:30;;;;;;;;;;;;;;;23.23;38.75;96771.56;5107043;28;19941;-73
2023/06/27 10:31:56;;;;;;;;;;;;;;;23.04;38.96;96777.72;5107462;28;20240;-73
2023/06/27 10:34:28;;;;;;;;;;;;;;;22.93;40.98;96784.28;5106686;28;19940;-72
2023/06/27 10:36:54;;;;;;;;;;;;;;;23.00;41.02;96782.03;5107665;28;19944;-79
2023/06/27 10:39:29;;;;;;;;;;;;;;;23.17;40.11;96780.75;5105868;28;20004;-80
2023/06/27 10:41:59;;;;;;;;;;;;;;;23.31;38.96;96778.94;5088807;28;19963;-80
2023/06/27 10:44:24;;;;;;;;;;;;;;;23.26;38.73;96781.69;5089397;28;20112;-80
2023/06/27 10:47:10;;;;;;;;;;;;;;;23.32;39.42;96783.19;5107516;28;19936;-80
2023/06/27 10:49:36;;;;;;;;;;;;;;;23.25;38.67;96778.22;5106074;28;19951;-82
2023/06/27 10:52:02;;;;;;;;;;;;;;;23.22;40.02;96783.34;5089306;28;19974;-71
2023/06/27 10:54:28;;;;;;;;;;;;;;;23.30;39.25;96782.69;5105542;28;19934;-80
2023/06/27 10:56:58;;;;;;;;;;;;;;;23.34;39.58;96769.53;5088554;28;19945;-75
2023/06/27 10:59:24;;;;;;;;;;;;;;;23.27;37.64;96772.59;5106295;28;19932;-71
2023/06/27 11:01:50;;;;;;;;;;;;;;;23.18;37.92;96772.44;5106401;28;19982;-71
2023/06/27 11:04:20;;;;;;;;;;;;;;;23.24;40.59;96775.81;5106360;28;19937;-71
2023/06/27 11:06:46;;;;;;;;;;;;;;;23.36;40.14;96781.53;5105369;28;20260;-71
2023/06/27 11:09:13;;;;;;;;;;;;;;;23.51;39.63;96780.47;5106246;28;19934;-71
2023/06/27 11:11:39;;;;;;;;;;;;;;;23.59;40.21;96784.38;5106747;28;20112;-72
2023/06/27 11:14:06;;;;;;;;;;;;;;;23.62;39.84;96776.56;5106596;28;19938;-75
2023/06/27 11:16:35;;;;;;;;;;;;;;;23.57;39.07;96765.13;5106533;28;19935;-75
2023/06/27 11:19:02;;;;;;;;;;;;;;;23.42;39.80;96771.53;5106545;28;19942;-75
2023/06/27 11:21:28;;;;;;;;;;;;;;;23.36;40.24;96781.53;5106040;28;19940;-75
2023/06/27 11:23:55;;;;;;;;;;;;;;;23.41;39.98;96773.41;5106141;28;19936;-78
2023/06/27 11:26:22;;;;;;;;;;;;;;;23.48;39.18;96767.69;5087718;28;19960;-80
2023/06/27 11:28:48;;;;;;;;;;;;;;;23.37;40.51;96775.09;5106602;28;19951;-74
2023/06/27 11:31:14;;;;;;;;;;;;;;;23.21;39.98;96777.22;5087648;28;20203;-81
2023/06/27 11:33:40;;;;;;;;;;;;;;;23.16;39.74;96774.63;5105701;28;20198;-72
2023/06/27 11:36:07;;;;;;;;;;;;;;;23.09;40.47;96774.97;5106186;28;20218;-72
2023/06/27 11:38:33;;;;;;;;;;;;;;;23.06;40.75;96772.88;5105586;28;19939;-72
2023/06/27 11:40:59;;;;;;;;;;;;;;;22.95;39.84;96773.28;5106104;28;19950;-72
2023/06/27 11:43:26;;;;;;;;;;;;;;;22.94;40.66;96775.16;5105367;28;19941;-72
2023/06/27 11:45:54;;;;;;;;;;;;;;;23.18;40.60;96772.44;5105763;28;19953;-73
2023/06/27 11:48:20;;;;;;;;;;;;;;;23.44;40.32;96758.66;5105474;28;19934;-77
2023/06/27 11:50:56;;;;;;;;;;;;;;;23.52;40.18;96758.00;5105397;28;19948;-73
2023/06/27 11:53:23;;;;;;;;;;;;;;;23.55;38.75;96756.59;5104118;28;19954;-73
2023/06/27 11:55:49;;;;;;;;;;;;;;;23.69;40.95;96766.25;5105846;28;19931;-73
2023/06/27 11:58:15;;;;;;;;;;;;;;;23.99;39.34;96755.31;5105309;28;20011;-73
2023/06/27 12:00:41;;;;;;;;;;;;;;;24.26;38.30;96746.50;5104982;28;19966;-73
2023/06/27 12:03:08;;;;;;;;;;;;;;;24.35;39.15;96747.38;5105180;28;19959;-73
2023/06/27 12:05:34;;;;;;;;;;;;;;;24.33;38.75;96746.88;5105892;28;19970;-74
2023/06/27 12:08:03;;;;;;;;;;;;;;;24.29;37.50;96737.84;5105425;28;19940;-71
2023/06/27 12:10:34;;;;;;;;;;;;;;;24.05;38.50;96749.56;5103957;28;19941;-71
2023/06/27 12:13:06;;;;;;;;;;;;;;;23.88;37.72;96739.44;5104481;28;19934;-71
2023/06/27 12:15:43;;;;;;;;;;;;;;;23.77;39.39;96747.94;5087657;28;20207;-71
2023/06/27 12:18:10;;;;;;;;;;;;;;;23.76;38.76;96744.47;5105820;28;19940;-71
2023/06/27 12:20:43;;;;;;;;;;;;;;;24.01;40.03;96745.09;5104420;28;20234;-70
2023/06/27 12:23:09;;;;;;;;;;;;;;;24.27;39.27;96742.69;5103656;28;19938;-71
2023/06/27 12:25:37;;;;;;;;;;;;;;;24.29;39.17;96738.63;5086677;28;19966;-72
2023/06/27 12:28:03;;;;;;;;;;;;;;;24.31;38.40;96733.75;5104372;28;19940;-80
2023/06/27 12:30:29;;;;;;;;;;;;;;;24.45;39.10;96727.59;5104223;28;19937;-80
2023/06/27 12:32:55;;;;;;;;;;;;;;;24.48;39.13;96711.72;5087434;28;20013;-81
2023/06/27 12:35:21;;;;;;;;;;;;;;;24.45;38.03;96708.84;5087531;28;19941;-79
2023/06/27 12:37:47;;;;;;;;;;;;;;;24.36;37.90;96702.59;5103597;28;19944;-81
2023/06/27 12:40:13;;;;;;;;;;;;;;;24.26;39.24;96699.03;5105429;28;19948;-80
2023/06/27 12:42:40;;;;;;;;;;;;;;;24.16;37.68;96699.25;5104024;28;19940;-74
2023/06/27 12:45:06;;;;;;;;;;;;;;;24.06;39.66;96704.81;5104460;28;19934;-73